Time;durP1;ratioP1;P1;durP2;ratioP2;P2;SDS_P1;SDS_P2;PMS_P1;PMS_P2;Temp;Humidity;BMP_temperature;BMP_pressure;BME280_temperature;BME280_humidity;BME280_pressure;Samples;Min_cycle;Max_cycle;Signal;HPM_P1;HPM_P2
2022/07/04 00:01:00;;;;;;;1.13;0.57;;;;;;;10.05;100.00;100324.00;7395302;19;20014;-83
2022/07/04 00:03:26;;;;;;;0.47;0.47;;;;;;;10.12;100.00;100324.50;7395709;19;20013;-83
2022/07/04 00:05:52;;;;;;;0.52;0.52;;;;;;;10.21;100.00;100332.84;7396474;19;20019;-83
2022/07/04 00:08:18;;;;;;;1.70;0.50;;;;;;;10.20;100.00;100324.97;7397208;19;20022;-84
2022/07/04 00:10:45;;;;;;;0.55;0.55;;;;;;;10.26;100.00;100321.13;7396933;19;20362;-83
2022/07/04 00:13:11;;;;;;;1.38;0.77;;;;;;;10.41;100.00;100324.84;7396333;19;20102;-83
2022/07/04 00:15:37;;;;;;;0.47;0.35;;;;;;;10.49;100.00;100323.31;7396496;19;20015;-83
2022/07/04 00:18:03;;;;;;;0.35;0.35;;;;;;;10.55;100.00;100321.44;7394980;19;20015;-83
2022/07/04 00:20:30;;;;;;;0.22;0.22;;;;;;;10.59;100.00;100319.28;7401288;19;20037;-83
2022/07/04 00:22:56;;;;;;;0.55;0.50;;;;;;;10.64;100.00;100307.53;7395893;19;20034;-83
2022/07/04 00:25:22;;;;;;;0.22;0.22;;;;;;;10.73;100.00;100305.97;7396742;19;20588;-83
2022/07/04 00:27:48;;;;;;;0.25;0.25;;;;;;;10.78;100.00;100308.91;7396069;19;20045;-83
2022/07/04 00:30:14;;;;;;;2.35;0.30;;;;;;;10.76;100.00;100305.81;7400391;19;20023;-83
2022/07/04 00:32:40;;;;;;;0.20;0.20;;;;;;;10.85;100.00;100308.56;7394233;19;20523;-83
2022/07/04 00:35:08;;;;;;;0.90;0.30;;;;;;;10.93;100.00;100297.91;7394735;19;20019;-83
2022/07/04 00:37:34;;;;;;;0.28;0.22;;;;;;;10.85;100.00;100291.09;7395901;19;20033;-82
2022/07/04 00:40:00;;;;;;;0.20;0.20;;;;;;;10.91;100.00;100301.16;7397913;19;20380;-83
2022/07/04 00:42:26;;;;;;;0.30;0.20;;;;;;;10.95;100.00;100300.97;7394230;19;20021;-82
2022/07/04 00:44:52;;;;;;;0.30;0.30;;;;;;;11.10;100.00;100268.44;7394559;19;20022;-83
2022/07/04 00:47:18;;;;;;;0.93;0.40;;;;;;;11.06;100.00;100251.88;7396350;19;20086;-82
2022/07/04 00:49:45;;;;;;;2.80;0.47;;;;;;;11.02;100.00;100244.94;7397359;19;20015;-82
2022/07/04 00:52:12;;;;;;;0.22;0.22;;;;;;;11.14;100.00;100258.66;7394906;19;20022;-82
2022/07/04 00:54:38;;;;;;;0.10;0.10;;;;;;;11.19;100.00;100262.84;7395823;19;20029;-82
2022/07/04 00:57:05;;;;;;;0.30;0.30;;;;;;;11.22;100.00;100254.28;7392623;19;20436;-82
2022/07/04 00:59:31;;;;;;;1.25;0.32;;;;;;;11.18;100.00;100255.69;7396026;19;20014;-83
2022/07/04 01:01:57;;;;;;;0.63;0.40;;;;;;;11.16;100.00;100247.03;7394200;19;20481;-83
2022/07/04 01:04:24;;;;;;;1.25;0.38;;;;;;;11.18;100.00;100258.47;7393010;19;20023;-83
2022/07/04 01:06:50;;;;;;;0.40;0.40;;;;;;;11.15;100.00;100243.47;7393393;19;20010;-83
2022/07/04 01:09:17;;;;;;;2.00;0.63;;;;;;;11.14;100.00;100252.31;7395618;19;20025;-83
2022/07/04 01:11:43;;;;;;;0.25;0.25;;;;;;;11.15;100.00;100254.63;7394664;19;20028;-82
2022/07/04 01:14:09;;;;;;;0.30;0.20;;;;;;;11.19;100.00;100257.25;7394277;19;20426;-83
2022/07/04 01:16:35;;;;;;;0.50;0.40;;;;;;;11.26;100.00;100248.56;7395010;19;20337;-82
2022/07/04 01:19:02;;;;;;;0.40;0.35;;;;;;;11.28;100.00;100255.19;7397254;19;20010;-83
2022/07/04 01:21:28;;;;;;;0.30;0.30;;;;;;;11.35;100.00;100263.22;7394545;19;20022;-82
2022/07/04 01:23:54;;;;;;;0.20;0.20;;;;;;;11.36;100.00;100253.63;7396898;19;20022;-82
2022/07/04 01:26:21;;;;;;;0.77;0.45;;;;;;;11.43;100.00;100258.09;7395055;19;20015;-83
2022/07/04 01:28:47;;;;;;;0.30;0.20;;;;;;;11.49;100.00;100250.63;7394361;19;20026;-83
2022/07/04 01:31:13;;;;;;;0.30;0.30;;;;;;;11.56;100.00;100255.88;7394187;19;20365;-83
2022/07/04 01:33:39;;;;;;;2.38;0.30;;;;;;;11.61;100.00;100260.78;7390741;19;20014;-82
2022/07/04 01:36:05;;;;;;;0.40;0.40;;;;;;;11.63;100.00;100258.28;7394212;19;20011;-83
2022/07/04 01:38:32;;;;;;;0.38;0.17;;;;;;;11.64;100.00;100261.84;7393646;19;20006;-82
2022/07/04 01:40:58;;;;;;;3.70;0.35;;;;;;;11.66;100.00;100260.16;7393929;19;20019;-82
2022/07/04 01:43:24;;;;;;;9.90;0.47;;;;;;;11.70;100.00;100255.19;7392480;19;20383;-82
2022/07/04 01:45:50;;;;;;;0.20;0.20;;;;;;;11.76;100.00;100260.91;7392234;19;20082;-82
2022/07/04 01:48:16;;;;;;;0.20;0.17;;;;;;;11.82;100.00;100261.81;7392475;19;20021;-82
2022/07/04 01:50:43;;;;;;;0.32;0.32;;;;;;;11.84;100.00;100260.09;7392074;19;20018;-82
2022/07/04 01:53:09;;;;;;;0.57;0.45;;;;;;;11.87;100.00;100253.53;7388719;19;20018;-82
2022/07/04 01:55:35;;;;;;;0.22;0.17;;;;;;;11.87;100.00;100259.13;7392007;19;20055;-83
2022/07/04 01:58:01;;;;;;;0.28;0.28;;;;;;;11.88;100.00;100254.31;7391916;19;20037;-83
2022/07/04 02:03:12;;;;;;;0.40;0.30;;;;;;;11.95;100.00;100237.22;7392503;19;20032;-83
2022/07/04 02:05:39;;;;;;;0.50;0.38;;;;;;;11.89;100.00;100245.47;7393008;19;20347;-83
2022/07/04 02:08:07;;;;;;;0.10;0.10;;;;;;;11.92;100.00;100241.72;7392995;19;20022;-83
2022/07/04 02:10:33;;;;;;;0.45;0.25;;;;;;;11.90;100.00;100240.66;7396065;19;20014;-83
2022/07/04 02:13:03;;;;;;;1.13;0.65;;;;;;;11.91;100.00;100245.00;7391564;19;20010;-83
2022/07/04 02:15:35;;;;;;;1.35;0.43;;;;;;;11.93;100.00;100251.63;7391420;19;20030;-83
2022/07/04 02:18:06;;;;;;;0.10;0.10;;;;;;;11.94;100.00;100253.19;7390338;19;20018;-83
2022/07/04 02:20:32;;;;;;;;;;;;;;;11.97;100.00;100240.31;7397899;19;20018;-83
2022/07/04 02:22:59;;;;;;;4.03;0.25;;;;;;;11.98;100.00;100242.59;7390391;19;20258;-83
2022/07/04 02:25:26;;;;;;;0.20;0.10;;;;;;;11.89;100.00;100242.66;7390716;19;20476;-82
2022/07/04 02:27:55;;;;;;;0.10;0.10;;;;;;;11.89;100.00;100239.88;7391078;19;20404;-82
2022/07/04 02:30:22;;;;;;;0.30;0.20;;;;;;;11.92;100.00;100238.94;7395601;19;20010;-82
2022/07/04 02:32:48;;;;;;;0.40;0.10;;;;;;;11.95;100.00;100231.63;7390079;19;20022;-82
2022/07/04 02:35:14;;;;;;;0.10;0.10;;;;;;;11.91;100.00;100226.22;7391704;19;20022;-82
2022/07/04 02:37:40;;;;;;;0.28;0.28;;;;;;;11.84;100.00;100232.19;7393134;19;20094;-82
2022/07/04 02:40:08;;;;;;;1.55;0.30;;;;;;;11.80;100.00;100231.56;7394573;19;20022;-82
2022/07/04 02:42:36;;;;;;;0.50;0.30;;;;;;;11.75;100.00;100240.59;7390195;19;20014;-82
2022/07/04 02:45:03;;;;;;;0.28;0.25;;;;;;;11.69;100.00;100236.91;7392506;19;20063;-82
2022/07/04 02:47:29;;;;;;;13.10;0.57;;;;;;;11.60;100.00;100239.72;7390520;19;20082;-82
2022/07/04 02:49:56;;;;;;;7.53;0.30;;;;;;;11.57;100.00;100234.31;7393874;19;20011;-83
2022/07/04 02:52:22;;;;;;;0.30;0.30;;;;;;;11.48;100.00;100235.13;7391932;19;20014;-83
2022/07/04 02:54:48;;;;;;;0.22;0.22;;;;;;;11.43;100.00;100233.75;7390642;19;20090;-82
2022/07/04 02:57:14;;;;;;;0.50;0.20;;;;;;;11.34;100.00;100233.03;7390789;19;20086;-82
2022/07/04 02:59:41;;;;;;;0.30;0.20;;;;;;;11.29;100.00;100244.81;7392896;19;20014;-82
2022/07/04 03:02:07;;;;;;;1.20;0.40;;;;;;;11.30;100.00;100243.59;7390906;19;20021;-82
2022/07/04 03:04:34;;;;;;;0.25;0.10;;;;;;;11.30;100.00;100249.16;7395161;19;20396;-82
2022/07/04 03:07:00;;;;;;;0.22;0.13;;;;;;;11.34;100.00;100238.63;7399154;19;20381;-82
2022/07/04 03:09:29;;;;;;;0.98;0.10;;;;;;;11.39;100.00;100229.63;7401130;19;20395;-82
2022/07/04 03:11:55;;;;;;;0.25;0.17;;;;;;;11.45;100.00;100250.03;7398700;19;20089;-82
2022/07/04 03:14:21;;;;;;;1.20;0.38;;;;;;;11.51;100.00;100239.78;7396004;19;20022;-82
2022/07/04 03:16:47;;;;;;;0.63;0.20;;;;;;;11.55;100.00;100236.78;7396117;19;20022;-82
2022/07/04 03:19:13;;;;;;;1.23;0.30;;;;;;;11.59;100.00;100229.03;7400867;19;20014;-82
2022/07/04 03:21:40;;;;;;;1.45;0.55;;;;;;;11.65;100.00;100236.28;7398881;19;20025;-82
2022/07/04 03:24:08;;;;;;;0.10;0.10;;;;;;;11.73;100.00;100234.72;7394801;19;20074;-82
2022/07/04 03:26:34;;;;;;;0.10;0.10;;;;;;;11.77;100.00;100234.53;7397029;19;20010;-83
2022/07/04 03:29:01;;;;;;;0.20;0.20;;;;;;;11.82;100.00;100240.25;7400036;19;20585;-82
2022/07/04 03:31:28;;;;;;;0.80;0.30;;;;;;;11.90;100.00;100223.91;7398296;19;20034;-82
2022/07/04 03:33:55;;;;;;;0.10;0.10;;;;;;;11.96;100.00;100222.78;7395200;19;20018;-82
2022/07/04 03:36:21;;;;;;;0.10;0.10;;;;;;;11.96;100.00;100222.78;7397939;19;20426;-82
2022/07/04 03:38:47;;;;;;;0.10;0.10;;;;;;;12.02;100.00;100218.06;7401232;19;20014;-83
2022/07/04 03:41:14;;;;;;;0.77;0.43;;;;;;;12.07;100.00;100220.22;7398256;19;20036;-83
2022/07/04 03:43:40;;;;;;;0.90;0.20;;;;;;;12.08;100.00;100226.59;7396737;19;20014;-82
2022/07/04 03:46:06;;;;;;;0.13;0.13;;;;;;;12.10;100.00;100233.25;7395984;19;20500;-82
2022/07/04 03:48:32;;;;;;;0.20;0.20;;;;;;;12.14;100.00;100233.81;7398345;19;20045;-83
2022/07/04 03:50:59;;;;;;;1.50;0.20;;;;;;;12.16;100.00;100239.69;7398004;19;20102;-82
2022/07/04 03:53:25;;;;;;;0.20;0.15;;;;;;;12.19;100.00;100230.34;7396274;19;20010;-82
2022/07/04 03:55:51;;;;;;;0.10;0.10;;;;;;;12.22;100.00;100222.25;7397851;19;20018;-82
2022/07/04 03:58:17;;;;;;;24.80;1.00;;;;;;;12.22;100.00;100225.84;7394026;19;20086;-83
2022/07/04 04:00:43;;;;;;;0.20;0.15;;;;;;;12.22;100.00;100231.41;7397603;19;20037;-83
2022/07/04 04:05:55;;;;;;;0.20;0.10;;;;;;;12.26;100.00;100234.03;7395593;19;20010;-82
2022/07/04 04:08:22;;;;;;;0.38;0.15;;;;;;;12.28;100.00;100231.53;7395497;19;20010;-83
2022/07/04 04:10:49;;;;;;;0.57;0.47;;;;;;;12.29;100.00;100233.06;7396693;19;20038;-82
2022/07/04 04:13:15;;;;;;;0.10;0.10;;;;;;;12.33;100.00;100228.06;7395487;19;20011;-82
2022/07/04 04:15:41;;;;;;;0.75;0.15;;;;;;;12.37;100.00;100242.63;7393924;19;20363;-83
2022/07/04 04:18:08;;;;;;;0.65;0.60;;;;;;;12.33;100.00;100236.44;7393033;19;20078;-83
2022/07/04 04:20:34;;;;;;;0.20;0.20;;;;;;;12.31;100.00;100236.16;7395269;19;20022;-83
2022/07/04 04:23:01;;;;;;;1.08;0.40;;;;;;;12.33;100.00;100239.25;7395659;19;20361;-82
2022/07/04 04:25:27;;;;;;;10.40;0.30;;;;;;;12.32;100.00;100243.31;7396127;19;20105;-83
2022/07/04 04:27:53;;;;;;;0.30;0.30;;;;;;;12.32;100.00;100232.13;7396309;19;20423;-83
2022/07/04 04:30:19;;;;;;;0.35;0.28;;;;;;;12.37;100.00;100237.03;7398969;19;20007;-82
2022/07/04 04:32:45;;;;;;;0.10;0.10;;;;;;;12.37;100.00;100237.03;7395127;19;20018;-83
2022/07/04 04:35:12;;;;;;;0.10;0.10;;;;;;;12.37;100.00;100234.25;7394768;19;20022;-82
2022/07/04 04:37:38;;;;;;;1.10;0.30;;;;;;;12.37;100.00;100237.81;7394833;19;20014;-83
2022/07/04 04:40:05;;;;;;;0.10;0.10;;;;;;;12.42;100.00;100242.75;7399281;19;20030;-83
2022/07/04 04:42:31;;;;;;;0.15;0.15;;;;;;;12.41;100.00;100246.03;7395517;19;20380;-82
2022/07/04 04:44:57;;;;;;;0.10;0.10;;;;;;;12.43;100.00;100233.09;7394295;19;20011;-83
2022/07/04 04:47:23;;;;;;;0.10;0.10;;;;;;;12.47;100.00;100230.13;7395742;19;20022;-83
2022/07/04 04:49:49;;;;;;;0.10;0.10;;;;;;;12.48;100.00;100228.88;7397442;19;20019;-83
2022/07/04 04:52:16;;;;;;;0.25;0.25;;;;;;;12.49;100.00;100234.00;7395723;19;20026;-83
2022/07/04 04:54:42;;;;;;;2.40;0.20;;;;;;;12.51;100.00;100239.09;7394071;19;20010;-82
2022/07/04 04:57:08;;;;;;;0.75;0.17;;;;;;;12.51;100.00;100244.69;7393330;19;20353;-82
2022/07/04 04:59:35;;;;;;;0.32;0.32;;;;;;;12.51;100.00;100244.69;7398006;19;20018;-83
2022/07/04 05:02:01;;;;;;;0.52;0.30;;;;;;;12.53;100.00;100242.19;7394028;19;20025;-83
2022/07/04 05:04:27;;;;;;;1.30;0.43;;;;;;;12.53;100.00;100248.53;7391880;19;20014;-83
2022/07/04 05:06:53;;;;;;;3.50;0.30;;;;;;;12.56;100.00;100246.81;7393253;19;20011;-84
2022/07/04 05:09:20;;;;;;;0.20;0.20;;;;;;;12.55;100.00;100240.44;7395037;19;20345;-83
2022/07/04 05:11:47;;;;;;;0.20;0.20;;;;;;;12.60;100.00;100247.41;7395373;19;20039;-83
2022/07/04 05:14:14;;;;;;;0.10;0.10;;;;;;;12.61;100.00;100248.91;7393337;19;20010;-83
2022/07/04 05:16:40;;;;;;;0.10;0.10;;;;;;;12.57;100.00;100242.75;7392842;19;20014;-83
2022/07/04 05:19:06;;;;;;;1.08;0.10;;;;;;;12.61;100.00;100243.34;7395879;19;20010;-83
2022/07/04 05:21:33;;;;;;;0.20;0.20;;;;;;;12.66;100.00;100234.28;7393091;19;20074;-83
2022/07/04 05:23:59;;;;;;;0.22;0.22;;;;;;;12.66;100.00;100235.06;7393557;19;20356;-82
2022/07/04 05:26:26;;;;;;;0.40;0.10;;;;;;;12.68;100.00;100237.38;7394753;19;20109;-82
2022/07/04 05:28:52;;;;;;;0.75;0.28;;;;;;;12.72;100.00;100244.31;7393199;19;20376;-83
2022/07/04 05:31:18;;;;;;;0.52;0.30;;;;;;;12.76;100.00;100250.50;7394502;19;20078;-82
2022/07/04 05:33:45;;;;;;;3.30;0.25;;;;;;;12.77;100.00;100254.84;7392066;19;20019;-83
2022/07/04 05:36:11;;;;;;;0.30;0.30;;;;;;;12.85;100.00;100249.63;7394314;19;20023;-83
2022/07/04 05:38:37;;;;;;;1.60;0.52;;;;;;;12.89;100.00;100253.00;7395609;19;20019;-83
2022/07/04 05:41:03;;;;;;;0.10;0.00;;;;;;;12.88;100.00;100255.03;7392792;19;20018;-83
2022/07/04 05:43:29;;;;;;;1.30;0.40;;;;;;;12.90;100.00;100249.72;7392562;19;20423;-83
2022/07/04 05:45:55;;;;;;;1.23;0.60;;;;;;;12.93;100.00;100248.75;7393358;19;20516;-83
2022/07/04 05:48:21;;;;;;;4.43;0.47;;;;;;;12.95;100.00;100253.84;7392041;19;20418;-83
2022/07/04 05:50:48;;;;;;;12.77;1.42;;;;;;;12.98;100.00;100255.69;7393429;19;20022;-83
2022/07/04 05:53:14;;;;;;;18.40;3.85;;;;;;;13.02;100.00;100258.28;7392704;19;20031;-83
2022/07/04 05:55:40;;;;;;;12.27;2.70;;;;;;;13.01;100.00;100257.53;7393165;19;20080;-83
2022/07/04 05:58:06;;;;;;;22.08;4.32;;;;;;;13.07;100.00;100258.44;7392368;19;20011;-82
2022/07/04 06:00:32;;;;;;;16.70;4.50;;;;;;;13.10;100.00;100263.06;7396390;19;20018;-83
2022/07/04 06:02:58;;;;;;;10.55;3.05;;;;;;;13.10;100.00;100268.66;7391226;19;20512;-83
2022/07/04 06:05:24;;;;;;;6.45;2.10;;;;;;;13.13;100.00;100248.09;7392991;19;20046;-83
2022/07/04 06:07:51;;;;;;;2.95;0.65;;;;;;;13.14;100.00;100246.84;7392943;19;20026;-83
2022/07/04 06:10:17;;;;;;;1.23;0.80;;;;;;;13.17;100.00;100240.28;7395792;19;20015;-83
2022/07/04 06:12:43;;;;;;;0.90;0.80;;;;;;;13.21;100.00;100240.09;7391133;19;20019;-83
2022/07/04 06:15:09;;;;;;;0.77;0.52;;;;;;;13.24;100.00;100245.50;7391221;19;20022;-81
2022/07/04 06:17:37;;;;;;;0.88;0.40;;;;;;;13.25;100.00;100247.03;7390902;19;20014;-83
2022/07/04 06:20:04;;;;;;;0.52;0.43;;;;;;;13.27;100.00;100247.31;7396242;19;20054;-83
2022/07/04 06:22:40;;;;;;;1.95;0.50;;;;;;;13.29;100.00;100258.03;7392384;19;20029;-83
2022/07/04 06:25:18;;;;;;;0.98;0.30;;;;;;;13.25;100.00;100252.63;7393035;19;20031;-83
2022/07/04 06:27:46;;;;;;;0.20;0.20;;;;;;;13.19;100.00;100248.97;7391298;19;20086;-83
2022/07/04 06:30:15;;;;;;;0.73;0.73;;;;;;;13.22;100.00;100250.03;7395352;19;20011;-83
2022/07/04 06:32:48;;;;;;;0.22;0.22;;;;;;;13.19;100.00;100248.97;7390328;19;20356;-82
2022/07/04 06:38:04;;;;;;;2.47;0.20;;;;;;;13.29;100.00;100255.22;7393722;19;20401;-83
2022/07/04 06:40:30;;;;;;;3.35;0.65;;;;;;;13.27;100.00;100255.72;7410088;19;20019;-83
2022/07/04 06:42:56;;;;;;;0.32;0.10;;;;;;;13.34;100.00;100257.34;7404450;19;20092;-82
2022/07/04 06:45:23;;;;;;;1.83;0.45;;;;;;;13.29;100.00;100261.59;7406716;19;20507;-82
2022/07/04 06:47:50;;;;;;;0.38;0.38;;;;;;;13.31;100.00;100255.50;7404511;19;20017;-83
2022/07/04 06:50:17;;;;;;;0.10;0.10;;;;;;;13.35;100.00;100265.25;7410553;19;20467;-82
2022/07/04 06:52:44;;;;;;;0.47;0.32;;;;;;;13.40;100.00;100264.56;7404462;19;20018;-83
2022/07/04 06:55:10;;;;;;;0.30;0.20;;;;;;;13.50;100.00;100265.22;7406664;19;20019;-82
2022/07/04 06:57:37;;;;;;;0.10;0.10;;;;;;;13.56;100.00;100261.25;7405485;19;20028;-83
2022/07/04 07:00:05;;;;;;;0.20;0.20;;;;;;;13.69;100.00;100260.91;7409689;19;20021;-82
2022/07/04 07:02:34;;;;;;;0.10;0.10;;;;;;;13.73;100.00;100264.28;7404582;19;20022;-83
2022/07/04 07:05:01;;;;;;;1.55;0.45;;;;;;;13.80;100.00;100265.91;7406232;19;20022;-83
2022/07/04 07:07:27;;;;;;;0.15;0.15;;;;;;;13.84;100.00;100266.50;7408216;19;20037;-82
2022/07/04 07:09:54;;;;;;;1.98;0.15;;;;;;;13.91;100.00;100263.25;7412706;19;20047;-82
2022/07/04 07:12:23;;;;;;;0.22;0.10;;;;;;;13.95;100.00;100264.59;7409685;19;20047;-83
2022/07/04 07:14:50;;;;;;;0.10;0.00;;;;;;;13.95;100.00;100264.59;7410075;19;20362;-83
2022/07/04 07:17:16;;;;;;;0.15;0.13;;;;;;;14.00;100.00;100266.72;7408510;19;20019;-83
2022/07/04 07:19:43;;;;;;;0.30;0.20;;;;;;;14.04;100.00;100264.47;7407430;19;20023;-83
2022/07/04 07:22:10;;;;;;;0.10;0.10;;;;;;;14.08;100.00;100261.44;7403459;19;20474;-83
2022/07/04 07:24:37;;;;;;;2.85;0.65;;;;;;;14.06;100.00;100269.56;7401503;19;20114;-83
2022/07/04 07:27:04;;;;;;;0.20;0.10;;;;;;;14.07;100.00;100271.13;7405097;19;20045;-83
2022/07/04 07:29:30;;;;;;;2.35;0.30;;;;;;;14.14;100.00;100271.47;7407540;19;20021;-83
2022/07/04 07:31:57;;;;;;;0.40;0.20;;;;;;;14.29;100.00;100260.22;7403880;19;20015;-84
2022/07/04 07:34:23;;;;;;;0.10;0.10;;;;;;;14.52;100.00;100262.03;7401719;19;20018;-83
2022/07/04 07:36:49;;;;;;;0.20;0.20;;;;;;;14.59;100.00;100250.38;7402956;19;20021;-83
2022/07/04 07:39:15;;;;;;;0.10;0.10;;;;;;;14.61;100.00;100247.84;7407131;19;20006;-82
2022/07/04 07:41:42;;;;;;;0.10;0.10;;;;;;;14.58;100.00;100256.47;7403685;19;20021;-83
2022/07/04 07:44:08;;;;;;;0.10;0.10;;;;;;;14.58;100.00;100273.28;7402746;19;20003;-82
2022/07/04 07:46:34;;;;;;;0.10;0.00;;;;;;;14.64;100.00;100274.88;7404927;19;20301;-83
2022/07/04 07:49:00;;;;;;;0.28;0.10;;;;;;;14.65;100.00;100279.25;7404757;19;20034;-84
2022/07/04 07:51:26;;;;;;;0.10;0.10;;;;;;;14.63;100.00;100273.34;7397173;19;20101;-83
2022/07/04 07:53:53;;;;;;;2.65;0.20;;;;;;;14.71;100.00;100276.47;7395225;19;20019;-84
2022/07/04 07:56:19;;;;;;;0.20;0.20;;;;;;;14.79;100.00;100267.13;7396368;19;20029;-82
2022/07/04 07:58:45;;;;;;;0.20;0.20;;;;;;;14.81;100.00;100273.03;7394329;19;20023;-82
2022/07/04 08:01:11;;;;;;;0.10;0.10;;;;;;;14.90;100.00;100264.44;7396216;19;20023;-83
2022/07/04 08:06:22;;;;;;;0.10;0.00;;;;;;;15.07;100.00;100265.38;7397140;19;20018;-82
2022/07/04 08:08:48;;;;;;;0.05;0.00;;;;;;;15.22;100.00;100289.75;7396796;19;20047;-83
2022/07/04 08:11:14;;;;;;;0.43;0.20;;;;;;;15.32;100.00;100277.84;7395107;19;20069;-83
2022/07/04 08:13:40;;;;;;;0.30;0.10;;;;;;;15.48;100.00;100284.88;7395739;19;20023;-82
2022/07/04 08:16:07;;;;;;;0.10;0.00;;;;;;;15.60;100.00;100278.84;7396995;19;20018;-83
2022/07/04 08:18:34;;;;;;;0.10;0.10;;;;;;;15.82;100.00;100275.41;7393582;19;20014;-82
2022/07/04 08:21:01;;;;;;;0.75;0.22;;;;;;;16.08;100.00;100269.69;7396136;19;20011;-82
2022/07/04 08:23:29;;;;;;;0.10;0.00;;;;;;;16.20;100.00;100271.28;7394500;19;20528;-82
2022/07/04 08:25:55;;;;;;;0.22;0.10;;;;;;;16.38;100.00;100273.66;7395342;19;20011;-81
2022/07/04 08:28:21;;;;;;;0.20;0.10;;;;;;;16.51;100.00;100280.38;7395190;19;20019;-83
2022/07/04 08:30:48;;;;;;;0.00;0.00;;;;;;;16.67;100.00;100288.06;7394844;19;20011;-83
2022/07/04 08:33:14;;;;;;;0.00;0.00;;;;;;;16.78;100.00;100283.78;7395782;19;20018;-82
2022/07/04 08:35:40;;;;;;;0.10;0.00;;;;;;;16.93;100.00;100267.44;7396504;19;20018;-84
2022/07/04 08:38:06;;;;;;;0.10;0.08;;;;;;;17.02;100.00;100273.56;7397963;19;20460;-82
2022/07/04 08:40:33;;;;;;;0.32;0.10;;;;;;;17.20;100.00;100266.69;7400628;19;20045;-82
2022/07/04 08:43:03;;;;;;;0.20;0.10;;;;;;;17.43;100.00;100251.34;7392371;19;20019;-83
2022/07/04 08:45:34;;;;;;;0.43;0.00;;;;;;;17.50;100.00;100250.84;7394413;19;20021;-83
2022/07/04 08:48:09;;;;;;;0.00;0.00;;;;;;;17.34;100.00;100254.41;7396149;19;20029;-82
2022/07/04 08:51:03;;;;;;;0.30;0.10;;;;;;;17.11;100.00;100264.13;7395703;19;20014;-81
2022/07/04 08:53:30;;;;;;;0.10;0.10;;;;;;;16.85;100.00;100263.59;7392045;19;20386;-81
2022/07/04 08:58:43;;;;;;;0.57;0.25;;;;;;;16.38;100.00;100254.75;7392705;19;20078;-82
2022/07/04 09:01:14;;;;;;;0.03;0.00;;;;;;;16.30;100.00;100248.06;7393688;19;20396;-82
2022/07/04 09:03:43;;;;;;;0.10;0.00;;;;;;;16.40;100.00;100240.94;7393781;19;20086;-81
2022/07/04 09:06:10;;;;;;;1.65;0.10;;;;;;;16.77;100.00;100228.78;7395421;19;20026;-82
2022/07/04 09:08:40;;;;;;;0.00;0.00;;;;;;;17.11;100.00;100214.22;7394144;19;20025;-84
2022/07/04 09:11:07;;;;;;;0.40;0.10;;;;;;;17.37;100.00;100213.94;7393610;19;20010;-82
2022/07/04 09:13:33;;;;;;;0.40;0.10;;;;;;;17.85;100.00;100200.31;7393927;19;20015;-82
2022/07/04 09:16:00;;;;;;;0.10;0.00;;;;;;;18.09;100.00;100203.28;7393570;19;20018;-82
2022/07/04 09:18:32;;;;;;;0.17;0.10;;;;;;;18.35;100.00;100199.31;7392356;19;20033;-82
2022/07/04 09:21:01;;;;;;;4.13;1.33;;;;;;;18.51;100.00;100218.25;7395226;19;20018;-81
2022/07/04 09:23:32;;;;;;;0.20;0.10;;;;;;;18.55;100.00;100213.09;7393529;19;20015;-82
2022/07/04 09:26:16;;;;;;;0.20;0.00;;;;;;;18.60;100.00;100212.28;7394830;19;20023;-83
2022/07/04 09:29:00;;;;;;;1.30;0.22;;;;;;;18.81;100.00;100207.78;7393923;19;20014;-82
2022/07/04 09:31:28;;;;;;;0.10;0.10;;;;;;;18.85;100.00;100209.03;7394551;19;20023;-81
2022/07/04 09:33:57;;;;;;;1.38;0.00;;;;;;;18.95;100.00;100201.00;7393260;19;20027;-82
2022/07/04 09:36:26;;;;;;;0.00;0.00;;;;;;;18.75;100.00;100210.63;7394268;19;20364;-82
2022/07/04 09:39:11;;;;;;;0.20;0.20;;;;;;;18.82;100.00;100209.31;7396051;19;20018;-83
2022/07/04 09:41:56;;;;;;;0.00;0.00;;;;;;;18.91;100.00;100201.28;7392638;19;20010;-81
2022/07/04 09:44:28;;;;;;;5.82;0.20;;;;;;;19.14;100.00;100212.41;7391554;19;20011;-82
2022/07/04 09:46:56;;;;;;;0.00;0.00;;;;;;;19.18;100.00;100213.66;7394421;19;20041;-81
2022/07/04 09:49:23;;;;;;;0.10;0.00;;;;;;;19.22;100.00;100214.13;7395894;19;20349;-81
2022/07/04 09:51:51;;;;;;;2.08;0.10;;;;;;;19.20;100.00;100213.91;7393912;19;20014;-82
2022/07/04 09:54:26;;;;;;;4.20;0.10;;;;;;;19.29;100.00;100204.31;7390652;19;20086;-82
2022/07/04 09:56:55;;;;;;;0.90;0.00;;;;;;;19.24;100.00;100200.25;7392055;19;20468;-83
2022/07/04 09:59:22;;;;;;;0.20;0.20;;;;;;;19.07;100.00;100213.75;7395208;19;20033;-82
2022/07/04 10:01:49;;;;;;;0.00;0.00;;;;;;;19.00;100.00;100213.53;7393532;19;20487;-82
2022/07/04 10:04:15;;;;;;;0.10;0.00;;;;;;;18.78;100.00;100218.06;7390457;19;20025;-82
2022/07/04 10:06:43;;;;;;;0.22;0.00;;;;;;;18.74;100.00;100217.56;7391157;19;20488;-83
2022/07/04 10:09:15;;;;;;;0.20;0.05;;;;;;;18.64;100.00;100236.13;7392974;19;20031;-81
2022/07/04 10:11:44;;;;;;;0.00;0.00;;;;;;;18.87;100.00;100245.19;7393399;19;20010;-81
2022/07/04 10:14:12;;;;;;;0.00;0.00;;;;;;;18.86;100.00;100241.59;7389888;19;20503;-82
2022/07/04 10:16:39;;;;;;;0.00;0.00;;;;;;;18.68;100.00;100255.59;7390854;19;20041;-83
2022/07/04 10:19:07;;;;;;;0.52;0.03;;;;;;;18.46;100.00;100261.34;7392631;19;20018;-83
2022/07/04 10:21:34;;;;;;;0.38;0.10;;;;;;;18.26;100.00;100267.31;7392497;19;20082;-82
2022/07/04 10:24:02;;;;;;;0.00;0.00;;;;;;;18.32;100.00;100251.13;7389954;19;20018;-82
2022/07/04 10:26:30;;;;;;;1.27;0.20;;;;;;;18.41;100.00;100267.75;7392129;19;20015;-81
2022/07/04 10:28:56;;;;;;;0.40;0.10;;;;;;;18.52;100.00;100276.94;7392350;19;20011;-83
2022/07/04 10:31:28;;;;;;;0.10;0.00;;;;;;;18.57;100.00;100272.56;7392337;19;20439;-82
2022/07/04 10:33:57;;;;;;;0.75;0.10;;;;;;;18.63;100.00;100267.66;7389611;19;20350;-82
2022/07/04 10:36:28;;;;;;;0.10;0.00;;;;;;;18.63;100.00;100279.72;7391194;19;20023;-82
2022/07/04 10:38:58;;;;;;;0.30;0.00;;;;;;;18.59;100.00;100275.63;7394200;19;20368;-82
2022/07/04 10:41:27;;;;;;;0.10;0.00;;;;;;;18.72;100.00;100268.13;7391923;19;20015;-83
2022/07/04 10:44:02;;;;;;;0.00;0.00;;;;;;;18.75;100.00;100277.59;7390603;19;20010;-83
2022/07/04 10:46:32;;;;;;;0.08;0.03;;;;;;;18.67;100.00;100282.25;7390809;19;20011;-82
2022/07/04 10:49:06;;;;;;;1.30;0.10;;;;;;;18.44;100.00;100269.53;7393244;19;20022;-82
2022/07/04 10:51:41;;;;;;;0.00;0.00;;;;;;;18.93;100.00;100260.81;7392018;19;20015;-82
2022/07/04 10:54:31;;;;;;;0.00;0.00;;;;;;;19.93;100.00;100253.53;7389598;19;20464;-82
2022/07/04 10:57:19;;;;;;;0.10;0.10;;;;;;;20.86;100.00;100248.72;7390720;19;20051;-82
2022/07/04 10:59:57;;;;;;;0.00;0.00;;;;;;;20.70;100.00;100246.16;7393237;19;20353;-86
2022/07/04 11:02:29;;;;;;;0.00;0.00;;;;;;;20.47;100.00;100257.00;7391780;19;20026;-83
2022/07/04 11:05:03;;;;;;;0.00;0.00;;;;;;;20.22;100.00;100258.38;7389827;19;20527;-82
2022/07/04 11:07:35;;;;;;;0.30;0.00;;;;;;;19.89;100.00;100265.13;7391472;19;20023;-83
2022/07/04 11:10:10;;;;;;;0.00;0.00;;;;;;;19.68;100.00;100272.56;7393882;19;20350;-83
2022/07/04 11:12:54;;;;;;;0.32;0.05;;;;;;;19.59;100.00;100272.88;7391378;19;20098;-83
2022/07/04 11:15:27;;;;;;;0.40;0.10;;;;;;;19.51;100.00;100274.78;7391736;19;20022;-83
2022/07/04 11:18:05;;;;;;;0.10;0.00;;;;;;;19.49;100.00;100274.53;7388740;19;20033;-84
2022/07/04 11:20:34;;;;;;;0.15;0.10;;;;;;;19.92;100.00;100278.22;7395759;19;20026;-83
2022/07/04 11:23:10;;;;;;;3.13;0.20;;;;;;;19.71;100.00;100274.31;7390488;19;20018;-83
2022/07/04 11:25:41;;;;;;;0.00;0.00;;;;;;;19.48;100.00;100273.75;7391614;19;20022;-82
2022/07/04 11:28:29;;;;;;;0.75;0.10;;;;;;;19.32;100.00;100277.44;7398473;19;20018;-82
2022/07/04 11:30:57;;;;;;;0.00;0.00;;;;;;;19.59;100.00;100282.13;7398509;19;20055;-82
2022/07/04 11:33:27;;;;;;;0.00;0.00;;;;;;;19.35;100.00;100293.38;7395749;19;20018;-82